createdAt,value
2022-12-31T00:00:13.607Z,23.58
2022-12-31T00:02:40.593Z,19.63
2022-12-31T00:05:07.977Z,22.00
2022-12-31T00:10:03.199Z,17.95
2022-12-31T00:12:30.052Z,23.55
2022-12-31T00:14:56.942Z,19.02
2022-12-31T00:17:23.784Z,18.70
2022-12-31T00:19:50.595Z,24.52
2022-12-31T00:22:17.411Z,21.05
2022-12-31T00:24:44.296Z,22.30
2022-12-31T00:27:11.127Z,19.95
2022-12-31T00:29:38.963Z,18.60
2022-12-31T00:32:06.141Z,19.80
2022-12-31T00:34:32.968Z,21.33
2022-12-31T00:36:59.836Z,19.48
2022-12-31T00:39:26.712Z,20.73
2022-12-31T00:41:53.569Z,18.50
2022-12-31T00:44:20.623Z,18.75
2022-12-31T00:46:48.325Z,18.52
2022-12-31T00:49:16.497Z,19.05
2022-12-31T00:51:43.245Z,19.60
2022-12-31T00:54:10.238Z,19.27
2022-12-31T00:56:37.006Z,21.55
2022-12-31T00:59:04.128Z,19.38
2022-12-31T01:01:33.837Z,16.58
2022-12-31T01:04:04.424Z,18.92
2022-12-31T01:06:31.320Z,25.08
2022-12-31T01:08:58.415Z,20.15
2022-12-31T01:11:29.302Z,20.63
2022-12-31T01:13:59.345Z,22.42
2022-12-31T01:16:39.479Z,21.35
2022-12-31T01:19:10.428Z,22.30
2022-12-31T01:21:39.872Z,24.52
2022-12-31T01:24:07.942Z,26.40
2022-12-31T01:26:35.152Z,25.75
2022-12-31T01:29:01.996Z,21.98
2022-12-31T01:31:29.807Z,26.92
2022-12-31T01:33:58.280Z,28.05
2022-12-31T01:36:27.568Z,27.75
2022-12-31T01:38:56.098Z,32.83
2022-12-31T01:41:32.163Z,25.10
2022-12-31T01:44:00.382Z,25.13
2022-12-31T01:46:42.006Z,29.25
2022-12-31T01:49:27.398Z,28.60
2022-12-31T01:52:03.001Z,32.08
2022-12-31T01:54:33.607Z,26.83
2022-12-31T01:57:00.976Z,29.25
2022-12-31T01:59:28.974Z,23.60
2022-12-31T02:01:56.202Z,28.17
2022-12-31T02:04:24.952Z,31.58
2022-12-31T02:07:00.130Z,27.63
2022-12-31T02:09:27.296Z,23.42
2022-12-31T02:11:54.210Z,25.63
2022-12-31T02:14:26.972Z,22.63
2022-12-31T02:17:09.441Z,28.77
2022-12-31T02:20:30.223Z,24.02
2022-12-31T02:23:41.249Z,29.77
2022-12-31T02:26:31.076Z,24.88
2022-12-31T02:29:39.308Z,24.17
2022-12-31T02:32:10.334Z,31.77
2022-12-31T02:34:52.958Z,31.05
2022-12-31T02:37:21.571Z,27.05
2022-12-31T02:39:49.182Z,27.50
2022-12-31T02:42:16.035Z,30.45
2022-12-31T02:44:43.301Z,23.08
2022-12-31T02:47:10.429Z,28.23
2022-12-31T02:50:22.624Z,27.63
2022-12-31T02:53:17.296Z,31.17
2022-12-31T02:56:09.277Z,31.35
2022-12-31T02:59:29.836Z,29.60
2022-12-31T03:02:15.173Z,32.55
2022-12-31T03:04:46.908Z,30.30
2022-12-31T03:07:18.029Z,26.85
2022-12-31T03:09:44.841Z,41.70
2022-12-31T03:12:31.524Z,25.10
2022-12-31T03:14:58.650Z,33.65
2022-12-31T03:17:26.131Z,31.25
2022-12-31T03:20:11.889Z,29.40
2022-12-31T03:22:41.795Z,27.08
2022-12-31T03:25:35.915Z,32.10
2022-12-31T03:30:31.957Z,28.13
2022-12-31T03:32:59.423Z,31.95
2022-12-31T03:35:28.560Z,37.88
2022-12-31T03:37:56.441Z,34.72
2022-12-31T03:40:25.527Z,41.28
2022-12-31T03:42:53.005Z,28.15
2022-12-31T03:45:20.257Z,45.28
2022-12-31T03:47:47.745Z,35.10
2022-12-31T03:50:17.017Z,34.08
2022-12-31T03:52:44.915Z,30.15
2022-12-31T03:55:12.606Z,40.83
2022-12-31T03:57:39.868Z,43.22
2022-12-31T04:00:08.904Z,49.85
2022-12-31T04:02:36.324Z,47.35
2022-12-31T04:05:03.500Z,36.58
2022-12-31T04:07:30.400Z,37.13
2022-12-31T04:09:57.680Z,44.53
2022-12-31T04:12:24.703Z,46.25
2022-12-31T04:14:51.746Z,56.47
2022-12-31T04:17:18.566Z,54.55
2022-12-31T04:19:45.377Z,45.10
2022-12-31T04:22:12.245Z,50.58
2022-12-31T04:24:39.001Z,53.38
2022-12-31T04:27:07.955Z,57.55
2022-12-31T04:29:35.518Z,47.58
2022-12-31T04:32:04.003Z,48.00
2022-12-31T04:34:30.904Z,54.72
2022-12-31T04:36:57.822Z,61.58
2022-12-31T04:39:26.360Z,56.42
2022-12-31T04:41:54.209Z,55.13
2022-12-31T04:44:21.383Z,50.55
2022-12-31T04:46:48.216Z,56.53
2022-12-31T04:49:15.145Z,49.97
2022-12-31T04:51:41.969Z,50.45
2022-12-31T04:54:08.832Z,50.38
2022-12-31T04:56:38.847Z,50.47
2022-12-31T04:59:07.346Z,53.03
2022-12-31T05:01:34.433Z,44.20
2022-12-31T05:04:01.229Z,50.78
2022-12-31T05:06:28.040Z,46.95
2022-12-31T05:08:54.927Z,39.83
2022-12-31T05:11:21.720Z,53.03
2022-12-31T05:13:48.646Z,43.70
2022-12-31T05:16:15.475Z,48.08
2022-12-31T05:18:42.349Z,39.97
2022-12-31T05:21:15.316Z,49.80
2022-12-31T05:23:42.152Z,43.22
2022-12-31T05:26:08.973Z,35.08
2022-12-31T05:28:35.785Z,37.55
2022-12-31T05:31:02.645Z,40.50
2022-12-31T05:33:29.525Z,42.95
2022-12-31T05:35:58.633Z,33.92
2022-12-31T05:38:26.301Z,29.33
2022-12-31T05:41:00.820Z,37.60
2022-12-31T05:43:27.816Z,26.83
2022-12-31T05:45:54.700Z,27.17
2022-12-31T05:48:21.891Z,22.75
2022-12-31T05:50:50.005Z,23.98
2022-12-31T05:53:16.865Z,25.60
2022-12-31T05:55:45.922Z,21.20
2022-12-31T05:58:13.253Z,18.30
2022-12-31T06:00:40.416Z,23.30
2022-12-31T06:03:07.372Z,29.60
2022-12-31T06:05:34.225Z,19.02
2022-12-31T06:08:00.991Z,21.48
2022-12-31T06:10:27.798Z,29.00
2022-12-31T06:12:54.591Z,20.38
2022-12-31T06:15:21.426Z,23.10
2022-12-31T06:17:48.429Z,18.63
2022-12-31T06:20:15.464Z,23.00
2022-12-31T06:22:42.362Z,19.20
2022-12-31T06:25:09.639Z,27.70
2022-12-31T06:27:36.455Z,21.33
2022-12-31T06:30:03.796Z,23.13
2022-12-31T06:32:30.960Z,26.00
2022-12-31T06:34:57.743Z,23.65
2022-12-31T06:37:24.574Z,24.30
2022-12-31T06:39:52.359Z,25.55
2022-12-31T06:42:19.122Z,26.20
2022-12-31T06:44:45.891Z,21.75
2022-12-31T06:47:12.844Z,30.55
2022-12-31T06:49:41.685Z,26.65
2022-12-31T06:52:08.449Z,31.30
2022-12-31T06:54:35.562Z,23.23
2022-12-31T06:57:02.691Z,27.15
2022-12-31T06:59:30.164Z,24.83
2022-12-31T07:02:24.703Z,25.42
2022-12-31T07:04:57.452Z,24.45
2022-12-31T07:07:48.035Z,30.77
2022-12-31T07:10:41.344Z,31.80
2022-12-31T07:13:26.455Z,26.55
2022-12-31T07:16:33.158Z,34.92
2022-12-31T07:19:21.784Z,36.15
2022-12-31T07:21:51.311Z,25.05
2022-12-31T07:24:18.700Z,28.65
2022-12-31T07:26:56.713Z,36.53
2022-12-31T07:29:32.986Z,26.45
2022-12-31T07:32:23.601Z,27.65
2022-12-31T07:35:11.346Z,36.25
2022-12-31T07:37:41.209Z,38.20
2022-12-31T07:40:13.799Z,32.75
2022-12-31T07:42:59.678Z,33.07
2022-12-31T07:45:38.037Z,36.53
2022-12-31T07:48:18.359Z,38.08
2022-12-31T07:50:45.513Z,38.15
2022-12-31T07:53:12.636Z,33.25
2022-12-31T07:55:39.503Z,33.22
2022-12-31T07:58:47.610Z,41.97
2022-12-31T08:01:19.881Z,40.83
2022-12-31T08:04:13.044Z,32.22
2022-12-31T08:07:00.327Z,33.97
2022-12-31T08:09:39.242Z,31.67
2022-12-31T08:12:08.586Z,35.33
2022-12-31T08:14:44.111Z,34.67
2022-12-31T08:17:16.977Z,37.75
2022-12-31T08:19:45.765Z,32.83
2022-12-31T08:22:23.680Z,28.98
2022-12-31T08:25:12.692Z,31.48
2022-12-31T08:27:46.997Z,31.40
2022-12-31T08:30:16.440Z,32.47
2022-12-31T08:33:04.465Z,36.90
2022-12-31T08:36:02.661Z,34.65
2022-12-31T08:39:01.333Z,34.17
2022-12-31T08:41:43.435Z,29.23
2022-12-31T08:44:39.530Z,36.65
2022-12-31T08:47:35.484Z,30.45
2022-12-31T08:50:05.951Z,35.38
2022-12-31T08:52:33.047Z,33.97
2022-12-31T08:55:00.199Z,36.35
2022-12-31T08:57:41.956Z,33.42
2022-12-31T09:00:16.974Z,33.23
2022-12-31T09:02:53.156Z,29.95
2022-12-31T09:05:41.672Z,31.05
2022-12-31T09:08:26.869Z,35.15
2022-12-31T09:11:22.562Z,28.58
2022-12-31T09:14:20.318Z,30.10
2022-12-31T09:17:29.945Z,32.72
2022-12-31T09:19:57.266Z,40.10
2022-12-31T09:22:24.619Z,40.28
2022-12-31T09:24:51.585Z,33.72
2022-12-31T09:27:50.649Z,37.22
2022-12-31T09:30:18.769Z,37.30
2022-12-31T09:33:10.330Z,34.05
2022-12-31T09:35:56.799Z,27.85
2022-12-31T09:38:23.837Z,35.25
2022-12-31T09:41:05.648Z,31.90
2022-12-31T09:43:47.709Z,35.28
2022-12-31T09:46:35.774Z,31.23
2022-12-31T09:49:37.944Z,29.27
2022-12-31T09:52:38.415Z,28.20
2022-12-31T09:55:31.413Z,29.00
2022-12-31T09:58:07.283Z,30.30
2022-12-31T10:00:43.669Z,30.73
2022-12-31T10:03:32.277Z,32.67
2022-12-31T10:06:08.090Z,37.38
2022-12-31T10:09:02.882Z,30.25
2022-12-31T10:11:46.200Z,30.85
2022-12-31T10:14:31.082Z,32.25
2022-12-31T10:17:36.601Z,28.50
2022-12-31T10:20:45.285Z,32.60
2022-12-31T10:23:38.152Z,29.38
2022-12-31T10:26:25.442Z,38.30
2022-12-31T10:29:22.082Z,36.53
2022-12-31T10:32:16.077Z,33.78
2022-12-31T10:35:14.255Z,41.60
2022-12-31T10:37:49.231Z,37.75
2022-12-31T10:40:45.284Z,52.63
2022-12-31T10:43:30.841Z,32.95
2022-12-31T10:46:22.462Z,30.15
2022-12-31T10:49:12.277Z,32.60
2022-12-31T10:51:48.264Z,29.55
2022-12-31T10:54:21.080Z,32.90
2022-12-31T10:57:23.632Z,28.52
2022-12-31T11:00:00.857Z,39.15
2022-12-31T11:02:33.696Z,33.28
2022-12-31T11:05:12.585Z,25.00
2022-12-31T11:08:19.859Z,35.05
2022-12-31T11:11:07.951Z,34.47
2022-12-31T11:13:59.129Z,27.35
2022-12-31T11:16:43.460Z,32.53
2022-12-31T11:19:31.227Z,40.65
2022-12-31T11:22:03.857Z,44.83
2022-12-31T11:25:00.617Z,38.23
2022-12-31T11:27:54.436Z,28.58
2022-12-31T11:31:09.479Z,36.67
2022-12-31T11:33:59.699Z,28.60
2022-12-31T11:36:46.737Z,40.70
2022-12-31T11:39:31.142Z,40.97
2022-12-31T11:42:01.401Z,34.05
2022-12-31T11:44:50.987Z,37.38
2022-12-31T11:48:12.193Z,31.00
2022-12-31T11:50:42.436Z,37.90
2022-12-31T11:53:18.912Z,35.92
2022-12-31T11:56:11.282Z,43.78
2022-12-31T11:58:46.444Z,47.88
2022-12-31T12:01:36.136Z,41.58
2022-12-31T12:04:03.591Z,45.42
2022-12-31T12:06:32.522Z,36.08
2022-12-31T12:09:06.933Z,52.80
2022-12-31T12:11:37.998Z,52.90
2022-12-31T12:14:41.658Z,45.10
2022-12-31T12:17:12.954Z,50.67
2022-12-31T12:19:45.476Z,39.20
2022-12-31T12:22:24.136Z,40.92
2022-12-31T12:25:03.588Z,44.58
2022-12-31T12:27:34.152Z,46.25
2022-12-31T12:30:27.902Z,48.33
2022-12-31T12:33:00.365Z,35.67
2022-12-31T12:35:30.575Z,46.28
2022-12-31T12:38:12.615Z,44.53
2022-12-31T12:40:40.132Z,53.70
2022-12-31T12:43:19.957Z,41.05
2022-12-31T12:45:51.619Z,41.55
2022-12-31T12:48:47.161Z,40.42
2022-12-31T12:51:48.717Z,48.53
2022-12-31T12:54:23.596Z,40.67
2022-12-31T12:56:59.407Z,42.15
2022-12-31T13:00:08.255Z,44.67
2022-12-31T13:02:53.786Z,46.55
2022-12-31T13:05:28.677Z,45.88
2022-12-31T13:08:32.250Z,44.15
2022-12-31T13:11:18.771Z,48.93
2022-12-31T13:14:14.555Z,41.47
2022-12-31T13:16:47.650Z,40.33
2022-12-31T13:19:41.987Z,53.63
2022-12-31T13:22:19.551Z,46.15
2022-12-31T13:25:01.898Z,54.97
2022-12-31T13:27:51.893Z,43.10
2022-12-31T13:30:20.051Z,48.28
2022-12-31T13:32:52.639Z,44.58
2022-12-31T13:35:38.207Z,60.07
2022-12-31T13:38:21.645Z,44.72
2022-12-31T13:40:57.305Z,52.20
2022-12-31T13:43:39.068Z,43.83
2022-12-31T13:46:46.352Z,42.35
2022-12-31T13:49:21.816Z,45.65
2022-12-31T13:52:13.428Z,42.28
2022-12-31T13:55:01.396Z,41.88
2022-12-31T13:57:53.568Z,51.08
2022-12-31T14:00:44.711Z,48.83
2022-12-31T14:03:24.753Z,55.88
2022-12-31T14:06:37.592Z,49.00
2022-12-31T14:09:05.973Z,50.70
2022-12-31T14:11:58.661Z,50.38
2022-12-31T14:14:53.603Z,48.55
2022-12-31T14:17:32.899Z,51.90
2022-12-31T14:20:40.743Z,42.70
2022-12-31T14:23:26.350Z,43.70
2022-12-31T14:26:01.340Z,47.92
2022-12-31T14:28:46.614Z,55.83
2022-12-31T14:31:34.204Z,45.45
2022-12-31T14:34:30.165Z,43.50
2022-12-31T14:37:41.720Z,51.88
2022-12-31T14:40:30.535Z,52.25
2022-12-31T14:43:26.345Z,57.47
2022-12-31T14:46:12.049Z,60.65
2022-12-31T14:49:03.911Z,54.97
2022-12-31T14:51:31.252Z,51.90
2022-12-31T14:53:58.801Z,50.05
2022-12-31T14:56:39.051Z,54.72
2022-12-31T14:59:34.435Z,46.67
2022-12-31T15:02:04.427Z,61.42
2022-12-31T15:04:46.274Z,55.97
2022-12-31T15:07:30.280Z,63.00
2022-12-31T15:10:23.465Z,51.05
2022-12-31T15:13:19.108Z,60.97
2022-12-31T15:16:07.366Z,53.97
2022-12-31T15:18:50.166Z,64.75
2022-12-31T15:21:46.148Z,61.55
2022-12-31T15:24:25.773Z,75.30
2022-12-31T15:26:56.594Z,66.00
2022-12-31T15:29:44.060Z,60.72
2022-12-31T15:32:20.903Z,57.03
2022-12-31T15:34:47.754Z,60.40
2022-12-31T15:37:35.865Z,65.80
2022-12-31T15:40:16.896Z,63.50
2022-12-31T15:42:50.523Z,51.97
2022-12-31T15:45:39.491Z,72.43
2022-12-31T15:48:22.177Z,59.25
2022-12-31T15:50:54.230Z,62.80
2022-12-31T15:53:24.434Z,59.42
2022-12-31T15:55:54.691Z,57.47
2022-12-31T15:58:26.189Z,58.75
2022-12-31T16:01:14.891Z,66.60
2022-12-31T16:04:02.727Z,61.80
2022-12-31T16:06:31.483Z,44.72
2022-12-31T16:08:59.183Z,59.17
2022-12-31T16:11:29.951Z,48.90
2022-12-31T16:13:58.654Z,55.65
2022-12-31T16:16:31.735Z,54.00
2022-12-31T16:19:00.651Z,58.55
2022-12-31T16:21:34.786Z,59.63
2022-12-31T16:24:05.098Z,65.55
2022-12-31T16:26:38.961Z,65.38
2022-12-31T16:29:15.056Z,74.47
2022-12-31T16:31:44.543Z,75.40
2022-12-31T16:34:15.738Z,71.28
2022-12-31T16:36:43.158Z,61.90
2022-12-31T16:39:36.919Z,62.08
2022-12-31T16:42:28.521Z,69.10
2022-12-31T16:44:57.033Z,61.40
2022-12-31T16:47:34.116Z,51.45
2022-12-31T16:50:23.121Z,59.55
2022-12-31T16:52:57.949Z,50.50
2022-12-31T16:55:30.007Z,57.53
2022-12-31T16:58:36.427Z,55.85
2022-12-31T17:01:23.256Z,65.25
2022-12-31T17:03:55.307Z,81.35
2022-12-31T17:06:22.567Z,62.35
2022-12-31T17:09:09.818Z,66.22
2022-12-31T17:11:57.741Z,67.53
2022-12-31T17:14:30.473Z,67.93
2022-12-31T17:17:03.549Z,62.35
2022-12-31T17:19:42.483Z,64.03
2022-12-31T17:22:21.730Z,62.35
2022-12-31T17:24:51.847Z,61.05
2022-12-31T17:27:19.616Z,58.58
2022-12-31T17:29:48.341Z,53.30
2022-12-31T17:32:35.566Z,55.40
2022-12-31T17:35:02.599Z,63.33
2022-12-31T17:37:30.775Z,53.88
2022-12-31T17:40:40.647Z,52.30
2022-12-31T17:42:50.497Z,56.70
2022-12-31T17:45:21.625Z,51.97
2022-12-31T17:47:52.353Z,56.60
2022-12-31T17:50:24.964Z,61.50
2022-12-31T17:52:56.891Z,62.37
2022-12-31T17:55:24.077Z,55.30
2022-12-31T17:57:53.936Z,50.58
2022-12-31T18:00:24.275Z,67.43
2022-12-31T18:02:51.279Z,62.40
2022-12-31T18:05:20.821Z,57.38
2022-12-31T18:08:07.838Z,58.00
2022-12-31T18:10:37.781Z,67.30
2022-12-31T18:13:07.714Z,67.18
2022-12-31T18:15:34.529Z,63.72
2022-12-31T18:18:11.289Z,66.65
2022-12-31T18:20:38.098Z,64.85
2022-12-31T18:23:04.886Z,65.47
2022-12-31T18:25:31.663Z,66.03
2022-12-31T18:28:05.562Z,60.60
2022-12-31T18:30:32.729Z,63.58
2022-12-31T18:32:59.508Z,72.78
2022-12-31T18:36:06.410Z,55.95
2022-12-31T18:38:14.864Z,59.80
2022-12-31T18:40:46.428Z,60.38
2022-12-31T18:43:18.019Z,60.35
2022-12-31T18:45:46.500Z,57.42
2022-12-31T18:48:13.689Z,56.75
2022-12-31T18:50:41.026Z,68.80
2022-12-31T18:53:11.850Z,67.93
2022-12-31T18:55:41.392Z,65.90
2022-12-31T18:58:10.553Z,64.63
2022-12-31T19:00:38.361Z,63.20
2022-12-31T19:03:08.393Z,70.00
2022-12-31T19:05:37.815Z,70.80
2022-12-31T19:08:05.043Z,63.65
2022-12-31T19:10:31.899Z,77.60
2022-12-31T19:12:58.751Z,62.88
2022-12-31T19:15:25.529Z,78.40
2022-12-31T19:18:12.673Z,53.10
2022-12-31T19:20:41.056Z,57.70
2022-12-31T19:23:19.211Z,63.65
2022-12-31T19:25:47.669Z,54.72
2022-12-31T19:28:22.237Z,48.35
2022-12-31T19:30:49.899Z,55.88
2022-12-31T19:33:17.426Z,56.60
2022-12-31T19:35:45.188Z,46.00
2022-12-31T19:38:24.091Z,54.13
2022-12-31T19:40:52.059Z,48.25
2022-12-31T19:43:21.083Z,43.83
2022-12-31T19:45:48.642Z,51.08
2022-12-31T19:48:24.679Z,46.90
2022-12-31T19:50:55.570Z,47.72
2022-12-31T19:53:25.164Z,56.20
2022-12-31T19:55:52.774Z,44.85
2022-12-31T19:58:27.852Z,42.95
2022-12-31T20:01:01.914Z,47.95
2022-12-31T20:03:31.575Z,44.55
2022-12-31T20:06:06.981Z,47.88
2022-12-31T20:08:35.642Z,39.65
2022-12-31T20:11:13.631Z,43.17
2022-12-31T20:13:41.449Z,46.35
2022-12-31T20:16:10.649Z,45.75
2022-12-31T20:18:38.748Z,38.45
2022-12-31T20:21:17.696Z,38.10
2022-12-31T20:23:44.687Z,49.03
2022-12-31T20:26:11.568Z,40.13
2022-12-31T20:28:39.720Z,35.05
2022-12-31T20:31:11.991Z,36.85
2022-12-31T20:33:39.380Z,36.17
2022-12-31T20:36:08.545Z,35.45
2022-12-31T20:38:35.586Z,34.90
2022-12-31T20:41:11.239Z,42.97
2022-12-31T20:43:38.481Z,36.22
2022-12-31T20:46:15.787Z,35.58
2022-12-31T20:48:44.408Z,36.72
2022-12-31T20:51:13.397Z,38.28
2022-12-31T20:53:40.385Z,37.38
2022-12-31T20:56:08.680Z,31.65
2022-12-31T20:58:35.976Z,31.58
2022-12-31T21:01:06.663Z,36.83
2022-12-31T21:06:27.081Z,33.40
2022-12-31T21:08:55.550Z,33.05
2022-12-31T21:11:41.155Z,30.63
2022-12-31T21:14:08.347Z,29.20
2022-12-31T21:16:35.434Z,31.73
2022-12-31T21:19:02.438Z,25.52
2022-12-31T21:21:29.337Z,31.23
2022-12-31T21:23:56.268Z,27.95
2022-12-31T21:26:23.105Z,23.90
2022-12-31T21:28:49.922Z,24.55
2022-12-31T21:31:16.854Z,26.85
2022-12-31T21:33:47.627Z,23.85
2022-12-31T21:36:15.736Z,25.27
2022-12-31T21:38:43.368Z,29.95
2022-12-31T21:41:34.929Z,24.40
2022-12-31T21:44:02.793Z,25.10
2022-12-31T21:46:30.036Z,28.25
2022-12-31T21:48:58.589Z,31.90
2022-12-31T21:51:26.690Z,25.02
2022-12-31T21:53:53.601Z,23.83
2022-12-31T21:56:21.591Z,22.85
2022-12-31T21:59:13.668Z,27.40
2022-12-31T22:01:59.576Z,23.75
2022-12-31T22:07:14.142Z,16.75
2022-12-31T22:09:40.977Z,17.13
2022-12-31T22:12:08.017Z,23.42
2022-12-31T22:14:34.924Z,23.95
2022-12-31T22:17:01.729Z,18.30
2022-12-31T22:19:28.577Z,21.88
2022-12-31T22:21:55.411Z,17.35
2022-12-31T22:24:22.173Z,17.35
2022-12-31T22:26:49.034Z,18.08
2022-12-31T22:29:15.874Z,20.35
2022-12-31T22:31:42.783Z,20.77
2022-12-31T22:34:09.641Z,23.55
2022-12-31T22:36:36.499Z,18.98
2022-12-31T22:39:03.533Z,24.40
2022-12-31T22:41:30.381Z,15.48
2022-12-31T22:44:03.552Z,18.67
2022-12-31T22:46:31.753Z,19.38
2022-12-31T22:48:59.888Z,19.77
2022-12-31T22:51:55.741Z,16.00
2022-12-31T22:54:15.001Z,17.45
2022-12-31T22:56:41.989Z,17.85
2022-12-31T22:59:09.417Z,16.92
2022-12-31T23:01:36.969Z,15.73
2022-12-31T23:04:04.845Z,16.48
2022-12-31T23:06:32.156Z,17.85
2022-12-31T23:09:17.726Z,19.35
2022-12-31T23:11:44.589Z,15.38
2022-12-31T23:14:34.718Z,15.38
2022-12-31T23:17:30.459Z,13.60
2022-12-31T23:20:20.698Z,13.57
2022-12-31T23:23:06.185Z,13.70
2022-12-31T23:25:36.663Z,17.52
2022-12-31T23:28:04.932Z,12.65
2022-12-31T23:30:31.899Z,13.43
2022-12-31T23:32:58.789Z,15.10
2022-12-31T23:35:25.824Z,13.70
2022-12-31T23:37:52.702Z,14.13
2022-12-31T23:40:21.769Z,13.05
2022-12-31T23:42:49.974Z,18.60
2022-12-31T23:45:16.915Z,17.63
2022-12-31T23:47:43.785Z,15.00
2022-12-31T23:50:10.648Z,16.10
2022-12-31T23:52:37.506Z,17.42
2022-12-31T23:55:04.808Z,14.35
2022-12-31T23:57:31.639Z,37.45
2022-12-31T23:59:58.433Z,15.75
